sensor_id;sensor_type;location;lat;lon;timestamp;temperature;humidity
22738;DHT22;11536;50.860;4.286;2023-04-15T00:01:19;11.50;99.90
22738;DHT22;11536;50.860;4.286;2023-04-15T00:03:45;11.50;99.90
22738;DHT22;11536;50.860;4.286;2023-04-15T00:06:11;11.40;99.90
22738;DHT22;11536;50.860;4.286;2023-04-15T00:08:38;11.40;99.90
22738;DHT22;11536;50.860;4.286;2023-04-15T00:11:04;11.40;99.90
22738;DHT22;11536;50.860;4.286;2023-04-15T00:13:30;11.40;99.90
22738;DHT22;11536;50.860;4.286;2023-04-15T00:15:57;11.50;99.90
22738;DHT22;11536;50.860;4.286;2023-04-15T00:18:23;11.50;99.90
22738;DHT22;11536;50.860;4.286;2023-04-15T00:20:49;11.50;99.90
22738;DHT22;11536;50.860;4.286;2023-04-15T00:23:14;11.50;99.90
22738;DHT22;11536;50.860;4.286;2023-04-15T00:25:40;11.50;99.90
22738;DHT22;11536;50.860;4.286;2023-04-15T00:28:06;11.50;99.90
22738;DHT22;11536;50.860;4.286;2023-04-15T00:30:31;11.40;99.90
22738;DHT22;11536;50.860;4.286;2023-04-15T00:32:57;11.40;99.90
22738;DHT22;11536;50.860;4.286;2023-04-15T00:35:23;11.40;99.90
22738;DHT22;11536;50.860;4.286;2023-04-15T00:37:49;11.40;99.90
22738;DHT22;11536;50.860;4.286;2023-04-15T00:40:16;11.40;99.90
22738;DHT22;11536;50.860;4.286;2023-04-15T00:42:43;11.50;99.90
22738;DHT22;11536;50.860;4.286;2023-04-15T00:45:09;11.40;99.90
22738;DHT22;11536;50.860;4.286;2023-04-15T00:47:35;11.40;99.90
22738;DHT22;11536;50.860;4.286;2023-04-15T00:50:02;11.40;99.90
22738;DHT22;11536;50.860;4.286;2023-04-15T00:52:27;11.30;99.90
22738;DHT22;11536;50.860;4.286;2023-04-15T00:54:53;11.40;99.90
22738;DHT22;11536;50.860;4.286;2023-04-15T00:57:20;11.20;99.90
22738;DHT22;11536;50.860;4.286;2023-04-15T00:59:47;11.40;99.90
22738;DHT22;11536;50.860;4.286;2023-04-15T01:02:13;11.30;99.90
22738;DHT22;11536;50.860;4.286;2023-04-15T01:04:39;11.30;99.90
22738;DHT22;11536;50.860;4.286;2023-04-15T01:07:05;11.40;99.90
22738;DHT22;11536;50.860;4.286;2023-04-15T01:09:31;11.40;99.90
22738;DHT22;11536;50.860;4.286;2023-04-15T01:11:57;11.30;99.90
22738;DHT22;11536;50.860;4.286;2023-04-15T01:14:24;11.30;99.90
22738;DHT22;11536;50.860;4.286;2023-04-15T01:16:51;11.30;99.90
22738;DHT22;11536;50.860;4.286;2023-04-15T01:19:17;11.30;99.90
22738;DHT22;11536;50.860;4.286;2023-04-15T01:21:43;11.30;99.90
22738;DHT22;11536;50.860;4.286;2023-04-15T01:24:10;11.40;99.90
22738;DHT22;11536;50.860;4.286;2023-04-15T01:26:39;11.30;99.90
22738;DHT22;11536;50.860;4.286;2023-04-15T01:29:05;11.30;99.90
22738;DHT22;11536;50.860;4.286;2023-04-15T01:31:31;11.20;99.90
22738;DHT22;11536;50.860;4.286;2023-04-15T01:33:57;11.30;99.90
22738;DHT22;11536;50.860;4.286;2023-04-15T01:36:23;11.20;99.90
22738;DHT22;11536;50.860;4.286;2023-04-15T01:38:49;11.20;99.90
22738;DHT22;11536;50.860;4.286;2023-04-15T01:41:15;11.20;99.90
22738;DHT22;11536;50.860;4.286;2023-04-15T01:43:41;11.20;99.90
22738;DHT22;11536;50.860;4.286;2023-04-15T01:46:07;11.30;99.90
22738;DHT22;11536;50.860;4.286;2023-04-15T01:48:32;11.20;99.90
22738;DHT22;11536;50.860;4.286;2023-04-15T01:50:58;11.20;99.90
22738;DHT22;11536;50.860;4.286;2023-04-15T01:53:24;11.20;99.90
22738;DHT22;11536;50.860;4.286;2023-04-15T01:55:50;11.20;99.90
22738;DHT22;11536;50.860;4.286;2023-04-15T01:58:19;11.20;99.90
22738;DHT22;11536;50.860;4.286;2023-04-15T02:00:46;11.10;99.90
22738;DHT22;11536;50.860;4.286;2023-04-15T02:03:12;11.10;99.90
22738;DHT22;11536;50.860;4.286;2023-04-15T02:05:37;11.00;99.90
22738;DHT22;11536;50.860;4.286;2023-04-15T02:08:03;11.00;99.90
22738;DHT22;11536;50.860;4.286;2023-04-15T02:10:29;11.00;99.90
22738;DHT22;11536;50.860;4.286;2023-04-15T02:12:54;11.00;99.90
22738;DHT22;11536;50.860;4.286;2023-04-15T02:15:20;11.10;99.90
22738;DHT22;11536;50.860;4.286;2023-04-15T02:17:46;11.10;99.90
22738;DHT22;11536;50.860;4.286;2023-04-15T02:20:15;11.10;99.90
22738;DHT22;11536;50.860;4.286;2023-04-15T02:22:42;11.10;99.90
22738;DHT22;11536;50.860;4.286;2023-04-15T02:25:08;11.10;99.90
22738;DHT22;11536;50.860;4.286;2023-04-15T02:27:35;11.10;99.90
22738;DHT22;11536;50.860;4.286;2023-04-15T02:30:01;11.00;99.90
22738;DHT22;11536;50.860;4.286;2023-04-15T02:32:27;11.00;99.90
22738;DHT22;11536;50.860;4.286;2023-04-15T02:34:53;11.00;99.90
22738;DHT22;11536;50.860;4.286;2023-04-15T02:37:19;11.00;99.90
22738;DHT22;11536;50.860;4.286;2023-04-15T02:39:45;11.00;99.90
22738;DHT22;11536;50.860;4.286;2023-04-15T02:42:11;11.00;99.90
22738;DHT22;11536;50.860;4.286;2023-04-15T02:44:37;11.00;99.90
22738;DHT22;11536;50.860;4.286;2023-04-15T02:47:03;10.90;99.90
22738;DHT22;11536;50.860;4.286;2023-04-15T02:49:31;10.90;99.90
22738;DHT22;11536;50.860;4.286;2023-04-15T02:51:57;10.90;99.90
22738;DHT22;11536;50.860;4.286;2023-04-15T02:54:25;10.90;99.90
22738;DHT22;11536;50.860;4.286;2023-04-15T02:56:53;10.90;99.90
22738;DHT22;11536;50.860;4.286;2023-04-15T02:59:20;10.90;99.90
22738;DHT22;11536;50.860;4.286;2023-04-15T03:01:46;10.90;99.90
22738;DHT22;11536;50.860;4.286;2023-04-15T03:04:12;10.90;99.90
22738;DHT22;11536;50.860;4.286;2023-04-15T03:06:38;10.90;99.90
22738;DHT22;11536;50.860;4.286;2023-04-15T03:09:04;10.90;99.90
22738;DHT22;11536;50.860;4.286;2023-04-15T03:11:30;10.90;99.90
22738;DHT22;11536;50.860;4.286;2023-04-15T03:13:56;10.90;99.90
22738;DHT22;11536;50.860;4.286;2023-04-15T03:16:23;10.90;99.90
22738;DHT22;11536;50.860;4.286;2023-04-15T03:18:48;10.80;99.90
22738;DHT22;11536;50.860;4.286;2023-04-15T03:21:14;10.80;99.90
22738;DHT22;11536;50.860;4.286;2023-04-15T03:23:40;10.80;99.90
22738;DHT22;11536;50.860;4.286;2023-04-15T03:26:06;10.80;99.90
22738;DHT22;11536;50.860;4.286;2023-04-15T03:28:31;10.80;99.90
22738;DHT22;11536;50.860;4.286;2023-04-15T03:30:58;10.90;99.90
22738;DHT22;11536;50.860;4.286;2023-04-15T03:33:23;10.80;99.90
22738;DHT22;11536;50.860;4.286;2023-04-15T03:35:50;10.90;99.90
22738;DHT22;11536;50.860;4.286;2023-04-15T03:38:16;10.90;99.90
22738;DHT22;11536;50.860;4.286;2023-04-15T03:40:42;10.80;99.90
22738;DHT22;11536;50.860;4.286;2023-04-15T03:43:08;10.80;99.90
22738;DHT22;11536;50.860;4.286;2023-04-15T03:45:34;10.80;99.90
22738;DHT22;11536;50.860;4.286;2023-04-15T03:48:00;10.70;99.90
22738;DHT22;11536;50.860;4.286;2023-04-15T03:50:25;10.70;99.90
22738;DHT22;11536;50.860;4.286;2023-04-15T03:52:52;10.70;99.90
22738;DHT22;11536;50.860;4.286;2023-04-15T03:55:17;10.60;99.90
22738;DHT22;11536;50.860;4.286;2023-04-15T03:57:44;10.60;99.90
22738;DHT22;11536;50.860;4.286;2023-04-15T04:00:10;10.60;99.90
22738;DHT22;11536;50.860;4.286;2023-04-15T04:02:35;10.60;99.90
22738;DHT22;11536;50.860;4.286;2023-04-15T04:05:01;10.60;99.90
22738;DHT22;11536;50.860;4.286;2023-04-15T04:07:26;10.60;99.90
22738;DHT22;11536;50.860;4.286;2023-04-15T04:09:52;10.50;99.90
22738;DHT22;11536;50.860;4.286;2023-04-15T04:12:18;10.50;99.90
22738;DHT22;11536;50.860;4.286;2023-04-15T04:14:43;10.50;99.90
22738;DHT22;11536;50.860;4.286;2023-04-15T04:17:09;10.50;99.90
22738;DHT22;11536;50.860;4.286;2023-04-15T04:19:35;10.50;99.90
22738;DHT22;11536;50.860;4.286;2023-04-15T04:22:00;10.50;99.90
22738;DHT22;11536;50.860;4.286;2023-04-15T04:24:26;10.50;99.90
22738;DHT22;11536;50.860;4.286;2023-04-15T04:26:52;10.50;99.90
22738;DHT22;11536;50.860;4.286;2023-04-15T04:29:18;10.50;99.90
22738;DHT22;11536;50.860;4.286;2023-04-15T04:31:44;10.50;99.90
22738;DHT22;11536;50.860;4.286;2023-04-15T04:34:10;10.50;99.90
22738;DHT22;11536;50.860;4.286;2023-04-15T04:36:35;10.40;99.90
22738;DHT22;11536;50.860;4.286;2023-04-15T04:39:01;10.40;99.90
22738;DHT22;11536;50.860;4.286;2023-04-15T04:41:27;10.40;99.90
22738;DHT22;11536;50.860;4.286;2023-04-15T04:43:52;10.40;99.90
22738;DHT22;11536;50.860;4.286;2023-04-15T04:46:18;10.40;99.90
22738;DHT22;11536;50.860;4.286;2023-04-15T04:48:43;10.50;99.90
22738;DHT22;11536;50.860;4.286;2023-04-15T04:51:10;10.40;99.90
22738;DHT22;11536;50.860;4.286;2023-04-15T04:53:35;10.30;99.90
22738;DHT22;11536;50.860;4.286;2023-04-15T04:56:02;10.30;99.90
22738;DHT22;11536;50.860;4.286;2023-04-15T04:58:27;10.30;99.90
22738;DHT22;11536;50.860;4.286;2023-04-15T05:00:53;10.20;99.90
22738;DHT22;11536;50.860;4.286;2023-04-15T05:03:19;10.20;99.90
22738;DHT22;11536;50.860;4.286;2023-04-15T05:05:44;10.20;99.90
22738;DHT22;11536;50.860;4.286;2023-04-15T05:08:10;10.10;99.90
22738;DHT22;11536;50.860;4.286;2023-04-15T05:10:36;10.20;99.90
22738;DHT22;11536;50.860;4.286;2023-04-15T05:13:01;10.20;99.90
22738;DHT22;11536;50.860;4.286;2023-04-15T05:15:27;10.20;99.90
22738;DHT22;11536;50.860;4.286;2023-04-15T05:17:53;10.20;99.90
22738;DHT22;11536;50.860;4.286;2023-04-15T05:20:19;10.30;99.90
22738;DHT22;11536;50.860;4.286;2023-04-15T05:22:45;10.30;99.90
22738;DHT22;11536;50.860;4.286;2023-04-15T05:25:10;10.30;99.90
22738;DHT22;11536;50.860;4.286;2023-04-15T05:27:36;10.20;99.90
22738;DHT22;11536;50.860;4.286;2023-04-15T05:30:02;10.20;99.90
22738;DHT22;11536;50.860;4.286;2023-04-15T05:32:28;10.20;99.90
22738;DHT22;11536;50.860;4.286;2023-04-15T05:34:53;10.30;99.90
22738;DHT22;11536;50.860;4.286;2023-04-15T05:37:19;10.30;99.90
22738;DHT22;11536;50.860;4.286;2023-04-15T05:39:47;10.30;99.90
22738;DHT22;11536;50.860;4.286;2023-04-15T05:42:13;10.30;99.90
22738;DHT22;11536;50.860;4.286;2023-04-15T05:44:39;10.30;99.90
22738;DHT22;11536;50.860;4.286;2023-04-15T05:47:04;10.30;99.90
22738;DHT22;11536;50.860;4.286;2023-04-15T05:49:31;10.30;99.90
22738;DHT22;11536;50.860;4.286;2023-04-15T05:51:57;10.30;99.90
22738;DHT22;11536;50.860;4.286;2023-04-15T05:54:22;10.30;99.90
22738;DHT22;11536;50.860;4.286;2023-04-15T05:56:48;10.30;99.90
22738;DHT22;11536;50.860;4.286;2023-04-15T05:59:14;10.30;99.90
22738;DHT22;11536;50.860;4.286;2023-04-15T06:01:40;10.30;99.90
22738;DHT22;11536;50.860;4.286;2023-04-15T06:04:05;10.30;99.90
22738;DHT22;11536;50.860;4.286;2023-04-15T06:06:31;10.30;99.90
22738;DHT22;11536;50.860;4.286;2023-04-15T06:08:59;10.30;99.90
22738;DHT22;11536;50.860;4.286;2023-04-15T06:11:25;10.30;99.90
22738;DHT22;11536;50.860;4.286;2023-04-15T06:13:51;10.20;99.90
22738;DHT22;11536;50.860;4.286;2023-04-15T06:16:17;10.20;99.90
22738;DHT22;11536;50.860;4.286;2023-04-15T06:18:42;10.20;99.90
22738;DHT22;11536;50.860;4.286;2023-04-15T06:21:08;10.30;99.90
22738;DHT22;11536;50.860;4.286;2023-04-15T06:23:34;10.30;99.90
22738;DHT22;11536;50.860;4.286;2023-04-15T06:26:01;10.40;99.90
22738;DHT22;11536;50.860;4.286;2023-04-15T06:28:27;10.40;99.90
22738;DHT22;11536;50.860;4.286;2023-04-15T06:30:53;10.40;99.90
22738;DHT22;11536;50.860;4.286;2023-04-15T06:33:18;10.50;99.90
22738;DHT22;11536;50.860;4.286;2023-04-15T06:35:44;10.50;99.90
22738;DHT22;11536;50.860;4.286;2023-04-15T06:38:10;10.60;99.90
22738;DHT22;11536;50.860;4.286;2023-04-15T06:40:36;10.60;99.90
22738;DHT22;11536;50.860;4.286;2023-04-15T06:43:02;10.60;99.90
22738;DHT22;11536;50.860;4.286;2023-04-15T06:45:29;10.60;99.90
22738;DHT22;11536;50.860;4.286;2023-04-15T06:47:54;10.60;99.90
22738;DHT22;11536;50.860;4.286;2023-04-15T06:50:20;10.70;99.90
22738;DHT22;11536;50.860;4.286;2023-04-15T06:52:45;10.70;99.90
22738;DHT22;11536;50.860;4.286;2023-04-15T06:55:11;10.70;99.90
22738;DHT22;11536;50.860;4.286;2023-04-15T06:57:37;10.80;99.90
22738;DHT22;11536;50.860;4.286;2023-04-15T07:00:03;10.70;99.90
22738;DHT22;11536;50.860;4.286;2023-04-15T07:02:30;10.80;99.90
22738;DHT22;11536;50.860;4.286;2023-04-15T07:04:55;10.80;99.90
22738;DHT22;11536;50.860;4.286;2023-04-15T07:07:21;10.90;99.90
22738;DHT22;11536;50.860;4.286;2023-04-15T07:09:46;11.00;99.90
22738;DHT22;11536;50.860;4.286;2023-04-15T07:12:12;11.00;99.90
22738;DHT22;11536;50.860;4.286;2023-04-15T07:14:38;11.10;99.90
22738;DHT22;11536;50.860;4.286;2023-04-15T07:17:03;11.10;99.90
22738;DHT22;11536;50.860;4.286;2023-04-15T07:19:29;11.20;99.90
22738;DHT22;11536;50.860;4.286;2023-04-15T07:21:55;11.20;99.90
22738;DHT22;11536;50.860;4.286;2023-04-15T07:24:21;11.30;99.90
22738;DHT22;11536;50.860;4.286;2023-04-15T07:26:47;11.40;99.90
22738;DHT22;11536;50.860;4.286;2023-04-15T07:29:13;11.40;99.90
22738;DHT22;11536;50.860;4.286;2023-04-15T07:31:39;11.50;99.90
22738;DHT22;11536;50.860;4.286;2023-04-15T07:34:06;11.60;99.90
22738;DHT22;11536;50.860;4.286;2023-04-15T07:36:32;11.70;99.90
22738;DHT22;11536;50.860;4.286;2023-04-15T07:38:57;11.70;99.90
22738;DHT22;11536;50.860;4.286;2023-04-15T07:41:23;11.90;99.90
22738;DHT22;11536;50.860;4.286;2023-04-15T07:43:50;11.90;99.90
22738;DHT22;11536;50.860;4.286;2023-04-15T07:46:15;11.90;99.90
22738;DHT22;11536;50.860;4.286;2023-04-15T07:48:41;12.00;99.90
22738;DHT22;11536;50.860;4.286;2023-04-15T07:51:07;12.00;99.90
22738;DHT22;11536;50.860;4.286;2023-04-15T07:53:33;12.00;99.90
22738;DHT22;11536;50.860;4.286;2023-04-15T07:55:58;12.00;99.90
22738;DHT22;11536;50.860;4.286;2023-04-15T07:58:24;11.90;99.90
22738;DHT22;11536;50.860;4.286;2023-04-15T08:00:50;11.80;99.90
22738;DHT22;11536;50.860;4.286;2023-04-15T08:03:16;11.80;99.90
22738;DHT22;11536;50.860;4.286;2023-04-15T08:05:41;11.80;99.90
22738;DHT22;11536;50.860;4.286;2023-04-15T08:08:07;11.70;99.90
22738;DHT22;11536;50.860;4.286;2023-04-15T08:10:33;11.70;99.90
22738;DHT22;11536;50.860;4.286;2023-04-15T08:12:59;11.70;99.90
22738;DHT22;11536;50.860;4.286;2023-04-15T08:15:25;11.80;99.90
22738;DHT22;11536;50.860;4.286;2023-04-15T08:17:51;11.90;99.90
22738;DHT22;11536;50.860;4.286;2023-04-15T08:20:17;11.90;99.90
22738;DHT22;11536;50.860;4.286;2023-04-15T08:22:43;12.00;99.90
22738;DHT22;11536;50.860;4.286;2023-04-15T08:25:09;12.10;99.90
22738;DHT22;11536;50.860;4.286;2023-04-15T08:27:34;11.90;99.90
22738;DHT22;11536;50.860;4.286;2023-04-15T08:30:00;11.90;99.90
22738;DHT22;11536;50.860;4.286;2023-04-15T08:32:26;12.00;99.90
22738;DHT22;11536;50.860;4.286;2023-04-15T08:34:52;12.00;99.90
22738;DHT22;11536;50.860;4.286;2023-04-15T08:37:17;12.00;99.90
22738;DHT22;11536;50.860;4.286;2023-04-15T08:39:43;12.00;99.90
22738;DHT22;11536;50.860;4.286;2023-04-15T08:42:16;12.10;99.90
22738;DHT22;11536;50.860;4.286;2023-04-15T08:44:42;12.10;99.90
22738;DHT22;11536;50.860;4.286;2023-04-15T08:47:12;12.10;99.90
22738;DHT22;11536;50.860;4.286;2023-04-15T08:49:39;12.20;99.90
22738;DHT22;11536;50.860;4.286;2023-04-15T08:52:07;12.20;99.90
22738;DHT22;11536;50.860;4.286;2023-04-15T08:54:34;12.30;99.90
22738;DHT22;11536;50.860;4.286;2023-04-15T08:56:59;12.30;99.90
22738;DHT22;11536;50.860;4.286;2023-04-15T08:59:27;12.40;99.90
22738;DHT22;11536;50.860;4.286;2023-04-15T09:01:54;12.40;99.90
22738;DHT22;11536;50.860;4.286;2023-04-15T09:04:21;12.40;99.90
22738;DHT22;11536;50.860;4.286;2023-04-15T09:06:47;12.50;99.90
22738;DHT22;11536;50.860;4.286;2023-04-15T09:09:12;12.50;99.90
22738;DHT22;11536;50.860;4.286;2023-04-15T09:11:41;12.60;99.90
22738;DHT22;11536;50.860;4.286;2023-04-15T09:14:07;12.60;99.90
22738;DHT22;11536;50.860;4.286;2023-04-15T09:16:56;12.70;99.90
22738;DHT22;11536;50.860;4.286;2023-04-15T09:19:23;12.70;99.90
22738;DHT22;11536;50.860;4.286;2023-04-15T09:21:51;12.70;99.90
22738;DHT22;11536;50.860;4.286;2023-04-15T09:24:17;12.80;99.90
22738;DHT22;11536;50.860;4.286;2023-04-15T09:26:43;12.80;99.90
22738;DHT22;11536;50.860;4.286;2023-04-15T09:29:10;12.90;99.90
22738;DHT22;11536;50.860;4.286;2023-04-15T09:31:39;13.10;99.90
22738;DHT22;11536;50.860;4.286;2023-04-15T09:34:05;13.10;99.90
22738;DHT22;11536;50.860;4.286;2023-04-15T09:39:12;13.30;99.90
22738;DHT22;11536;50.860;4.286;2023-04-15T09:41:38;13.40;99.90
22738;DHT22;11536;50.860;4.286;2023-04-15T09:44:04;13.40;99.90
22738;DHT22;11536;50.860;4.286;2023-04-15T09:46:44;13.50;99.90
22738;DHT22;11536;50.860;4.286;2023-04-15T09:49:10;13.60;99.90
22738;DHT22;11536;50.860;4.286;2023-04-15T09:51:37;13.70;99.90
22738;DHT22;11536;50.860;4.286;2023-04-15T09:54:03;13.80;99.90
22738;DHT22;11536;50.860;4.286;2023-04-15T09:56:38;13.80;99.90
22738;DHT22;11536;50.860;4.286;2023-04-15T09:59:08;13.90;99.90
22738;DHT22;11536;50.860;4.286;2023-04-15T10:01:34;14.00;99.90
22738;DHT22;11536;50.860;4.286;2023-04-15T10:04:02;14.00;99.90
22738;DHT22;11536;50.860;4.286;2023-04-15T10:06:29;14.00;99.90
22738;DHT22;11536;50.860;4.286;2023-04-15T10:08:58;14.10;99.90
22738;DHT22;11536;50.860;4.286;2023-04-15T10:11:27;14.10;99.90
22738;DHT22;11536;50.860;4.286;2023-04-15T10:13:53;14.20;99.90
22738;DHT22;11536;50.860;4.286;2023-04-15T10:16:20;14.20;99.90
22738;DHT22;11536;50.860;4.286;2023-04-15T10:18:53;14.30;99.90
22738;DHT22;11536;50.860;4.286;2023-04-15T10:21:20;14.40;99.90
22738;DHT22;11536;50.860;4.286;2023-04-15T10:23:49;14.40;99.90
22738;DHT22;11536;50.860;4.286;2023-04-15T10:26:16;14.40;99.90
22738;DHT22;11536;50.860;4.286;2023-04-15T10:28:44;14.40;99.90
22738;DHT22;11536;50.860;4.286;2023-04-15T10:31:12;14.40;99.90
22738;DHT22;11536;50.860;4.286;2023-04-15T10:33:40;14.40;99.90
22738;DHT22;11536;50.860;4.286;2023-04-15T10:36:07;14.50;99.90
22738;DHT22;11536;50.860;4.286;2023-04-15T10:38:41;14.60;99.90
22738;DHT22;11536;50.860;4.286;2023-04-15T10:41:24;14.50;99.90
22738;DHT22;11536;50.860;4.286;2023-04-15T10:44:04;14.50;99.90
22738;DHT22;11536;50.860;4.286;2023-04-15T10:46:36;14.50;99.90
22738;DHT22;11536;50.860;4.286;2023-04-15T10:49:10;14.60;99.90
22738;DHT22;11536;50.860;4.286;2023-04-15T10:51:45;14.60;99.90
22738;DHT22;11536;50.860;4.286;2023-04-15T11:05:19;14.70;99.90
22738;DHT22;11536;50.860;4.286;2023-04-15T11:12:49;14.70;99.90
22738;DHT22;11536;50.860;4.286;2023-04-15T11:15:35;14.70;99.90
22738;DHT22;11536;50.860;4.286;2023-04-15T11:20:43;14.80;99.90
22738;DHT22;11536;50.860;4.286;2023-04-15T11:23:13;14.90;99.90
22738;DHT22;11536;50.860;4.286;2023-04-15T11:25:38;14.90;99.90
22738;DHT22;11536;50.860;4.286;2023-04-15T11:28:04;15.00;99.90
22738;DHT22;11536;50.860;4.286;2023-04-15T11:30:35;15.00;99.90
22738;DHT22;11536;50.860;4.286;2023-04-15T11:33:03;15.00;99.90
22738;DHT22;11536;50.860;4.286;2023-04-15T11:35:29;15.00;99.90
22738;DHT22;11536;50.860;4.286;2023-04-15T11:37:55;15.00;99.90
22738;DHT22;11536;50.860;4.286;2023-04-15T11:40:23;15.10;99.90
22738;DHT22;11536;50.860;4.286;2023-04-15T11:43:08;15.20;99.90
22738;DHT22;11536;50.860;4.286;2023-04-15T11:45:35;15.20;99.60
22738;DHT22;11536;50.860;4.286;2023-04-15T11:48:08;15.10;99.30
22738;DHT22;11536;50.860;4.286;2023-04-15T11:50:35;15.10;99.90
22738;DHT22;11536;50.860;4.286;2023-04-15T11:53:03;15.20;99.90
22738;DHT22;11536;50.860;4.286;2023-04-15T11:55:30;15.30;99.60
22738;DHT22;11536;50.860;4.286;2023-04-15T11:58:22;15.20;97.20
22738;DHT22;11536;50.860;4.286;2023-04-15T12:00:50;15.20;96.60
22738;DHT22;11536;50.860;4.286;2023-04-15T12:09:22;15.40;97.90
22738;DHT22;11536;50.860;4.286;2023-04-15T12:14:09;15.60;99.00
22738;DHT22;11536;50.860;4.286;2023-04-15T12:16:43;15.70;99.00
22738;DHT22;11536;50.860;4.286;2023-04-15T12:19:13;15.80;98.40
22738;DHT22;11536;50.860;4.286;2023-04-15T12:21:43;15.90;98.40
22738;DHT22;11536;50.860;4.286;2023-04-15T12:24:10;16.10;98.60
22738;DHT22;11536;50.860;4.286;2023-04-15T12:26:41;16.20;98.30
22738;DHT22;11536;50.860;4.286;2023-04-15T12:29:07;16.30;99.00
22738;DHT22;11536;50.860;4.286;2023-04-15T12:31:36;16.50;98.50
22738;DHT22;11536;50.860;4.286;2023-04-15T12:34:03;16.60;97.00
22738;DHT22;11536;50.860;4.286;2023-04-15T12:36:31;16.70;96.70
22738;DHT22;11536;50.860;4.286;2023-04-15T12:39:02;16.70;96.60
22738;DHT22;11536;50.860;4.286;2023-04-15T12:41:28;16.70;96.50
22738;DHT22;11536;50.860;4.286;2023-04-15T12:43:54;16.90;96.40
22738;DHT22;11536;50.860;4.286;2023-04-15T12:46:20;16.90;97.40
22738;DHT22;11536;50.860;4.286;2023-04-15T12:48:46;17.10;98.30
22738;DHT22;11536;50.860;4.286;2023-04-15T12:51:12;17.30;98.70
22738;DHT22;11536;50.860;4.286;2023-04-15T12:53:38;17.40;97.10
22738;DHT22;11536;50.860;4.286;2023-04-15T12:56:04;17.50;97.20
22738;DHT22;11536;50.860;4.286;2023-04-15T12:58:29;17.40;96.40
22738;DHT22;11536;50.860;4.286;2023-04-15T13:00:55;17.40;95.80
22738;DHT22;11536;50.860;4.286;2023-04-15T13:03:21;17.20;94.50
22738;DHT22;11536;50.860;4.286;2023-04-15T13:05:47;17.20;94.70
22738;DHT22;11536;50.860;4.286;2023-04-15T13:08:12;17.10;94.40
22738;DHT22;11536;50.860;4.286;2023-04-15T13:10:38;17.10;95.60
22738;DHT22;11536;50.860;4.286;2023-04-15T13:13:04;17.30;97.30
22738;DHT22;11536;50.860;4.286;2023-04-15T13:15:30;17.50;96.60
22738;DHT22;11536;50.860;4.286;2023-04-15T13:17:55;17.70;96.60
22738;DHT22;11536;50.860;4.286;2023-04-15T13:20:21;17.70;95.60
22738;DHT22;11536;50.860;4.286;2023-04-15T13:22:47;17.80;96.80
22738;DHT22;11536;50.860;4.286;2023-04-15T13:25:12;17.90;95.70
22738;DHT22;11536;50.860;4.286;2023-04-15T13:27:38;17.90;94.80
22738;DHT22;11536;50.860;4.286;2023-04-15T13:30:04;17.80;93.60
22738;DHT22;11536;50.860;4.286;2023-04-15T13:32:30;17.80;95.20
22738;DHT22;11536;50.860;4.286;2023-04-15T13:34:56;17.80;95.90
22738;DHT22;11536;50.860;4.286;2023-04-15T13:37:26;18.00;95.80
22738;DHT22;11536;50.860;4.286;2023-04-15T13:39:52;18.10;95.80
22738;DHT22;11536;50.860;4.286;2023-04-15T13:42:18;18.10;94.50
22738;DHT22;11536;50.860;4.286;2023-04-15T13:44:44;18.20;94.70
22738;DHT22;11536;50.860;4.286;2023-04-15T13:47:09;18.20;94.90
22738;DHT22;11536;50.860;4.286;2023-04-15T13:49:35;18.30;93.50
22738;DHT22;11536;50.860;4.286;2023-04-15T13:52:01;18.20;94.50
22738;DHT22;11536;50.860;4.286;2023-04-15T13:54:26;18.30;94.80
22738;DHT22;11536;50.860;4.286;2023-04-15T13:56:53;18.30;94.20
22738;DHT22;11536;50.860;4.286;2023-04-15T13:59:19;18.40;94.50
22738;DHT22;11536;50.860;4.286;2023-04-15T14:01:44;18.50;96.10
22738;DHT22;11536;50.860;4.286;2023-04-15T14:04:10;18.50;95.00
22738;DHT22;11536;50.860;4.286;2023-04-15T14:06:35;18.60;95.30
22738;DHT22;11536;50.860;4.286;2023-04-15T14:09:01;18.60;94.70
22738;DHT22;11536;50.860;4.286;2023-04-15T14:11:26;18.60;95.60
22738;DHT22;11536;50.860;4.286;2023-04-15T14:13:52;18.60;94.80
22738;DHT22;11536;50.860;4.286;2023-04-15T14:16:18;18.50;96.00
22738;DHT22;11536;50.860;4.286;2023-04-15T14:18:43;18.50;95.40
22738;DHT22;11536;50.860;4.286;2023-04-15T14:21:09;18.50;95.20
22738;DHT22;11536;50.860;4.286;2023-04-15T14:23:35;18.60;94.60
22738;DHT22;11536;50.860;4.286;2023-04-15T14:26:00;18.60;94.60
22738;DHT22;11536;50.860;4.286;2023-04-15T14:28:26;18.70;93.50
22738;DHT22;11536;50.860;4.286;2023-04-15T14:30:51;18.70;94.70
22738;DHT22;11536;50.860;4.286;2023-04-15T14:33:18;18.70;94.80
22738;DHT22;11536;50.860;4.286;2023-04-15T14:35:43;18.70;94.20
22738;DHT22;11536;50.860;4.286;2023-04-15T14:38:09;18.60;93.20
22738;DHT22;11536;50.860;4.286;2023-04-15T14:40:35;18.60;93.50
22738;DHT22;11536;50.860;4.286;2023-04-15T14:43:01;18.60;94.10
22738;DHT22;11536;50.860;4.286;2023-04-15T14:45:27;18.60;95.20
22738;DHT22;11536;50.860;4.286;2023-04-15T14:47:54;18.70;94.70
22738;DHT22;11536;50.860;4.286;2023-04-15T14:50:20;18.50;93.50
22738;DHT22;11536;50.860;4.286;2023-04-15T14:52:46;18.50;93.90
22738;DHT22;11536;50.860;4.286;2023-04-15T14:55:12;18.20;93.30
22738;DHT22;11536;50.860;4.286;2023-04-15T14:57:38;18.00;93.70
22738;DHT22;11536;50.860;4.286;2023-04-15T15:00:05;17.80;93.30
22738;DHT22;11536;50.860;4.286;2023-04-15T15:02:32;17.70;94.70
22738;DHT22;11536;50.860;4.286;2023-04-15T15:04:59;17.60;95.50
22738;DHT22;11536;50.860;4.286;2023-04-15T15:07:25;17.70;95.10
22738;DHT22;11536;50.860;4.286;2023-04-15T15:09:50;17.80;96.00
22738;DHT22;11536;50.860;4.286;2023-04-15T15:12:16;17.90;96.20
22738;DHT22;11536;50.860;4.286;2023-04-15T15:14:42;17.80;96.00
22738;DHT22;11536;50.860;4.286;2023-04-15T15:17:09;17.80;96.60
22738;DHT22;11536;50.860;4.286;2023-04-15T15:19:35;17.80;96.50
22738;DHT22;11536;50.860;4.286;2023-04-15T15:22:01;17.70;96.80
22738;DHT22;11536;50.860;4.286;2023-04-15T15:24:27;17.70;96.90
22738;DHT22;11536;50.860;4.286;2023-04-15T15:26:52;17.70;96.90
22738;DHT22;11536;50.860;4.286;2023-04-15T15:29:18;17.60;97.40
22738;DHT22;11536;50.860;4.286;2023-04-15T15:31:44;17.60;97.20
22738;DHT22;11536;50.860;4.286;2023-04-15T15:34:09;17.50;97.60
22738;DHT22;11536;50.860;4.286;2023-04-15T15:36:35;17.50;97.50
22738;DHT22;11536;50.860;4.286;2023-04-15T15:39:01;17.50;97.70
22738;DHT22;11536;50.860;4.286;2023-04-15T15:41:26;17.40;97.60
22738;DHT22;11536;50.860;4.286;2023-04-15T15:43:52;17.30;98.10
22738;DHT22;11536;50.860;4.286;2023-04-15T15:46:18;17.30;98.30
22738;DHT22;11536;50.860;4.286;2023-04-15T15:48:44;17.30;98.60
22738;DHT22;11536;50.860;4.286;2023-04-15T15:51:09;17.40;98.80
22738;DHT22;11536;50.860;4.286;2023-04-15T15:53:35;17.20;98.60
22738;DHT22;11536;50.860;4.286;2023-04-15T15:56:01;17.10;99.00